createdAt,value
2022-09-27T00:04:02.761Z,89.04
2022-09-27T00:09:24.436Z,90.26
2022-09-27T00:14:46.107Z,87.66
2022-09-27T00:20:08.659Z,89.36
2022-09-27T00:25:30.314Z,91.28
2022-09-27T00:30:53.312Z,90.54
2022-09-27T00:36:15.499Z,89.81
2022-09-27T00:41:37.855Z,90.24
2022-09-27T00:47:13.958Z,89.49
2022-09-27T00:52:46.018Z,89.65
2022-09-27T00:58:08.234Z,88.47
2022-09-27T01:03:44.205Z,88.73
2022-09-27T01:09:09.209Z,87.14
2022-09-27T01:14:36.811Z,87.62
2022-09-27T01:20:31.218Z,88.03
2022-09-27T01:26:10.948Z,87.64
2022-09-27T01:31:40.385Z,88.23
2022-09-27T01:37:22.439Z,89.16
2022-09-27T01:42:55.482Z,89.57
2022-09-27T01:48:22.347Z,91.45
2022-09-27T01:53:47.544Z,88.27
2022-09-27T01:59:11.684Z,90.64
2022-09-27T02:04:36.862Z,90.31
2022-09-27T02:10:12.416Z,91.04
2022-09-27T02:15:49.758Z,92.53
2022-09-27T02:21:14.995Z,92.80
2022-09-27T02:26:42.233Z,93.43
2022-09-27T02:32:04.023Z,93.56
2022-09-27T02:37:25.831Z,94.15
2022-09-27T02:42:48.158Z,92.65
2022-09-27T02:48:48.102Z,90.42
2022-09-27T02:54:47.517Z,88.62
2022-09-27T03:00:14.069Z,87.35
2022-09-27T03:05:46.349Z,86.85
2022-09-27T03:11:08.135Z,84.83
2022-09-27T03:16:29.871Z,88.57
2022-09-27T03:21:51.706Z,91.52
2022-09-27T03:27:13.390Z,93.37
2022-09-27T03:32:35.091Z,88.93
2022-09-27T03:37:56.773Z,88.07
2022-09-27T03:43:18.540Z,88.00
2022-09-27T03:48:41.919Z,85.78
2022-09-27T03:54:03.840Z,85.79
2022-09-27T03:59:25.554Z,87.27
2022-09-27T04:04:47.670Z,86.64
2022-09-27T04:10:10.283Z,85.36
2022-09-27T04:15:32.076Z,86.41
2022-09-27T04:20:53.780Z,87.24
2022-09-27T04:26:15.512Z,88.09
2022-09-27T04:31:37.924Z,87.53
2022-09-27T04:37:00.253Z,86.91
2022-09-27T04:42:21.984Z,86.55
2022-09-27T04:47:48.114Z,89.41
2022-09-27T04:53:14.269Z,87.85
2022-09-27T04:58:35.974Z,87.09
2022-09-27T05:03:57.732Z,88.04
2022-09-27T05:09:20.031Z,88.93
2022-09-27T05:14:41.907Z,90.08
2022-09-27T05:20:04.704Z,90.64
2022-09-27T05:25:26.602Z,91.33
2022-09-27T05:30:48.383Z,92.29
2022-09-27T05:36:10.406Z,91.41
2022-09-27T05:41:32.891Z,91.11
2022-09-27T05:46:54.730Z,91.93
2022-09-27T05:52:17.529Z,89.10
2022-09-27T05:57:40.889Z,88.06
2022-09-27T06:03:05.511Z,88.64
2022-09-27T06:08:27.310Z,86.41
2022-09-27T06:13:49.024Z,86.92
2022-09-27T06:19:10.791Z,87.93
2022-09-27T06:24:32.509Z,89.88
2022-09-27T06:29:54.244Z,87.56
2022-09-27T06:35:16.112Z,87.98
2022-09-27T06:40:37.989Z,86.96
2022-09-27T06:46:05.318Z,86.85
2022-09-27T06:51:27.139Z,85.31
2022-09-27T06:56:49.002Z,86.15
2022-09-27T07:02:10.720Z,84.46
2022-09-27T07:07:32.506Z,82.35
2022-09-27T07:12:54.942Z,82.51
2022-09-27T07:18:16.692Z,82.59
2022-09-27T07:23:38.454Z,81.87
2022-09-27T07:29:00.719Z,83.08
2022-09-27T07:34:22.499Z,82.36
2022-09-27T07:39:44.698Z,82.74
2022-09-27T07:45:09.237Z,81.08
2022-09-27T07:50:31.272Z,81.23
2022-09-27T07:55:54.166Z,82.32
2022-09-27T08:01:15.969Z,81.87
2022-09-27T08:06:37.720Z,81.32
2022-09-27T08:11:59.428Z,79.52
2022-09-27T08:17:21.199Z,79.15
2022-09-27T08:22:43.681Z,77.67
2022-09-27T08:28:05.494Z,75.91
2022-09-27T08:33:31.996Z,78.00
2022-09-27T08:38:57.712Z,77.07
2022-09-27T08:44:43.744Z,75.39
2022-09-27T08:50:27.217Z,74.21
2022-09-27T08:55:55.398Z,73.87
2022-09-27T09:01:19.059Z,74.55
2022-09-27T09:06:47.298Z,74.70
2022-09-27T09:12:54.654Z,73.55
2022-09-27T09:18:45.194Z,75.49
2022-09-27T09:24:26.261Z,75.75
2022-09-27T09:29:50.762Z,75.43
2022-09-27T09:35:17.733Z,73.05
2022-09-27T09:40:58.046Z,70.21
2022-09-27T09:46:40.205Z,69.14
2022-09-27T09:52:19.207Z,68.29
2022-09-27T09:57:53.443Z,68.32
2022-09-27T10:03:15.186Z,70.14
2022-09-27T10:08:37.173Z,68.26
2022-09-27T10:13:59.025Z,66.50
2022-09-27T10:19:31.687Z,64.20
2022-09-27T10:24:56.795Z,65.74
2022-09-27T10:30:32.130Z,64.51
2022-09-27T10:35:53.917Z,63.26
2022-09-27T10:41:37.547Z,64.27
2022-09-27T10:47:07.396Z,63.71
2022-09-27T10:52:29.185Z,64.88
2022-09-27T10:57:54.182Z,63.33
2022-09-27T11:03:17.228Z,62.69
2022-09-27T11:08:38.938Z,63.37
2022-09-27T11:14:23.881Z,63.34
2022-09-27T11:19:57.650Z,63.24
2022-09-27T11:25:46.538Z,62.29
2022-09-27T11:31:36.020Z,60.88
2022-09-27T11:37:23.673Z,60.70
2022-09-27T11:43:11.806Z,59.56
2022-09-27T11:48:57.726Z,59.71
2022-09-27T11:54:19.354Z,59.45
2022-09-27T12:00:02.736Z,61.64
2022-09-27T12:05:31.957Z,61.22
2022-09-27T12:11:17.149Z,63.88
2022-09-27T12:16:41.793Z,66.77
2022-09-27T12:22:13.016Z,71.76
2022-09-27T12:27:40.545Z,77.07
2022-09-27T12:33:13.147Z,81.45
2022-09-27T12:38:43.967Z,82.41
2022-09-27T12:44:05.837Z,81.38
2022-09-27T12:49:48.768Z,81.63
2022-09-27T12:55:11.023Z,81.88
2022-09-27T13:00:47.089Z,81.61
2022-09-27T13:06:31.716Z,83.00
2022-09-27T13:12:10.271Z,81.34
2022-09-27T13:17:49.012Z,81.64
2022-09-27T13:23:19.560Z,84.31
2022-09-27T13:28:50.061Z,80.91
2022-09-27T13:34:44.689Z,82.54
2022-09-27T13:40:15.795Z,85.94
2022-09-27T13:45:43.824Z,87.03
2022-09-27T13:51:20.042Z,89.42
2022-09-27T13:56:46.672Z,85.89
2022-09-27T14:02:30.212Z,84.63
2022-09-27T14:07:53.243Z,83.97
2022-09-27T14:13:20.230Z,85.26
2022-09-27T14:19:00.550Z,93.15
2022-09-27T14:24:30.778Z,90.76
2022-09-27T14:29:56.954Z,92.31
2022-09-27T14:35:39.893Z,94.19
2022-09-27T14:41:03.912Z,94.42
2022-09-27T14:46:27.451Z,96.65
2022-09-27T14:51:55.052Z,96.74
2022-09-27T14:57:17.639Z,95.40
2022-09-27T15:02:41.561Z,97.01
2022-09-27T15:08:06.320Z,100.00
2022-09-27T15:13:28.390Z,98.16
2022-09-27T15:19:00.289Z,95.47
2022-09-27T15:24:40.028Z,96.05
2022-09-27T15:30:01.798Z,99.21
2022-09-27T15:35:26.626Z,95.71
2022-09-27T15:40:48.541Z,96.56
2022-09-27T15:46:35.189Z,95.76
2022-09-27T15:51:59.712Z,97.40
2022-09-27T15:57:21.473Z,94.91
2022-09-27T16:02:43.442Z,91.97
2022-09-27T16:08:05.140Z,89.56
2022-09-27T16:13:32.451Z,87.73
2022-09-27T16:18:54.814Z,84.56
2022-09-27T16:24:17.267Z,81.75
2022-09-27T16:29:43.516Z,78.86
2022-09-27T16:35:06.080Z,80.27
2022-09-27T16:40:28.214Z,82.46
2022-09-27T16:45:50.189Z,84.15
2022-09-27T16:51:35.310Z,82.87
2022-09-27T16:56:58.191Z,77.39
2022-09-27T17:02:19.993Z,77.34
2022-09-27T17:07:42.514Z,75.50
2022-09-27T17:13:04.244Z,76.29
2022-09-27T17:18:25.971Z,77.43
2022-09-27T17:23:47.805Z,79.16
2022-09-27T17:29:12.768Z,81.02
2022-09-27T17:34:36.129Z,84.28
2022-09-27T17:39:57.856Z,82.02
2022-09-27T17:45:19.594Z,79.37
2022-09-27T17:50:46.064Z,79.48
2022-09-27T17:56:07.804Z,76.63
2022-09-27T18:01:29.561Z,75.70
2022-09-27T18:06:51.260Z,75.69
2022-09-27T18:12:13.710Z,76.82
2022-09-27T18:17:37.314Z,80.72
2022-09-27T18:22:59.014Z,78.51
2022-09-27T18:28:25.545Z,77.90
2022-09-27T18:33:48.813Z,78.26
2022-09-27T18:39:13.181Z,80.67
2022-09-27T18:44:34.908Z,81.78
2022-09-27T18:49:57.658Z,81.90
2022-09-27T18:55:22.133Z,81.47
2022-09-27T19:00:47.099Z,82.13
2022-09-27T19:06:17.120Z,79.12
2022-09-27T19:11:39.248Z,79.05
2022-09-27T19:17:01.237Z,80.82
2022-09-27T19:22:23.421Z,79.24
2022-09-27T19:27:45.158Z,79.77
2022-09-27T19:33:06.961Z,79.07
2022-09-27T19:38:32.899Z,80.68
2022-09-27T19:43:56.013Z,80.49
2022-09-27T19:49:18.893Z,80.25
2022-09-27T19:54:40.692Z,82.33
2022-09-27T20:00:03.760Z,82.13
2022-09-27T20:05:25.523Z,82.39
2022-09-27T20:11:05.897Z,81.80
2022-09-27T20:16:28.490Z,81.43
2022-09-27T20:21:50.427Z,78.92
2022-09-27T20:27:12.154Z,78.18
2022-09-27T20:32:34.945Z,78.06
2022-09-27T20:37:56.794Z,76.89
2022-09-27T20:43:18.529Z,75.50
2022-09-27T20:48:41.027Z,76.12
2022-09-27T20:54:04.551Z,77.36
2022-09-27T20:59:26.329Z,76.78
2022-09-27T21:04:48.012Z,76.71
2022-09-27T21:10:10.005Z,77.08
2022-09-27T21:15:31.827Z,78.03
2022-09-27T21:20:58.391Z,78.43
2022-09-27T21:26:21.955Z,78.81
2022-09-27T21:31:43.872Z,78.43
2022-09-27T21:37:05.648Z,78.74
2022-09-27T21:42:27.342Z,79.64
2022-09-27T21:47:49.068Z,80.47
2022-09-27T21:53:10.833Z,80.17
2022-09-27T21:58:34.319Z,80.67
2022-09-27T22:03:57.616Z,81.59
2022-09-27T22:09:19.392Z,83.10
2022-09-27T22:14:41.390Z,84.52
2022-09-27T22:20:03.350Z,87.34
2022-09-27T22:25:25.286Z,89.29
2022-09-27T22:30:46.975Z,89.07
2022-09-27T22:36:08.788Z,88.97
2022-09-27T22:41:30.627Z,89.16
2022-09-27T22:46:52.608Z,89.06
2022-09-27T22:52:14.564Z,88.96
2022-09-27T22:57:36.314Z,89.42
2022-09-27T23:02:58.959Z,89.75
2022-09-27T23:08:21.585Z,89.09
2022-09-27T23:13:43.917Z,89.25
2022-09-27T23:19:08.061Z,90.90
2022-09-27T23:24:29.879Z,91.20
2022-09-27T23:29:51.577Z,90.42
2022-09-27T23:35:13.411Z,92.48
2022-09-27T23:40:36.045Z,92.00
2022-09-27T23:45:57.875Z,92.47
2022-09-27T23:51:19.564Z,92.51
2022-09-27T23:56:41.268Z,93.53
